createdAt,value
2023-03-06T00:01:50.126Z,10.68
2023-03-06T00:04:54.096Z,14.13
2023-03-06T00:07:57.491Z,15.73
2023-03-06T00:11:01.469Z,28.00
2023-03-06T00:14:04.961Z,49.00
2023-03-06T00:17:08.621Z,18.23
2023-03-06T00:20:12.862Z,9.93
2023-03-06T00:23:16.145Z,12.25
2023-03-06T00:26:19.467Z,13.05
2023-03-06T00:29:22.991Z,8.77
2023-03-06T00:32:27.371Z,4.68
2023-03-06T00:35:32.001Z,10.93
2023-03-06T00:38:36.331Z,7.35
2023-03-06T00:41:39.717Z,5.35
2023-03-06T00:44:43.040Z,22.55
2023-03-06T00:47:46.311Z,11.23
2023-03-06T00:50:50.938Z,13.57
2023-03-06T00:53:54.161Z,24.00
2023-03-06T00:56:57.403Z,8.73
2023-03-06T01:00:01.112Z,12.67
2023-03-06T01:03:04.475Z,23.35
2023-03-06T01:06:08.172Z,9.15
2023-03-06T01:09:11.731Z,10.23
2023-03-06T01:12:15.021Z,9.25
2023-03-06T01:15:18.325Z,10.80
2023-03-06T01:18:21.529Z,10.43
2023-03-06T01:21:25.162Z,9.65
2023-03-06T01:24:29.280Z,15.18
2023-03-06T01:27:33.338Z,9.80
2023-03-06T01:30:36.531Z,13.93
2023-03-06T01:33:39.932Z,13.07
2023-03-06T01:36:43.120Z,11.93
2023-03-06T01:39:46.545Z,26.15
2023-03-06T01:42:51.202Z,4.95
2023-03-06T01:46:12.824Z,5.18
2023-03-06T01:49:27.424Z,3.30
2023-03-06T01:52:49.056Z,5.95
2023-03-06T01:55:52.525Z,6.68
2023-03-06T01:58:55.972Z,16.60
2023-03-06T02:02:02.566Z,5.70
2023-03-06T02:05:07.407Z,5.22
2023-03-06T02:11:19.914Z,3.95
2023-03-06T02:14:24.296Z,6.90
2023-03-06T02:17:28.599Z,5.85
2023-03-06T02:20:48.877Z,11.40
2023-03-06T02:23:58.369Z,8.48
2023-03-06T02:27:05.250Z,6.18
2023-03-06T02:30:11.008Z,19.05
2023-03-06T02:33:19.620Z,2.38
2023-03-06T02:36:22.934Z,20.05
2023-03-06T02:39:28.629Z,11.93
2023-03-06T02:42:32.105Z,4.38
2023-03-06T02:45:46.203Z,4.82
2023-03-06T02:48:49.496Z,22.63
2023-03-06T02:51:52.864Z,3.90
2023-03-06T02:54:56.241Z,9.20
2023-03-06T02:58:00.335Z,5.37
2023-03-06T03:01:05.125Z,4.28
2023-03-06T03:04:09.026Z,3.00
2023-03-06T03:07:13.602Z,2.72
2023-03-06T03:10:17.348Z,9.80
2023-03-06T03:13:21.432Z,10.63
2023-03-06T03:16:25.659Z,11.23
2023-03-06T03:19:29.118Z,3.90
2023-03-06T03:22:32.591Z,4.88
2023-03-06T03:25:35.863Z,6.85
2023-03-06T03:28:39.527Z,2.55
2023-03-06T03:31:42.983Z,2.53
2023-03-06T03:34:46.250Z,3.90
2023-03-06T03:37:49.863Z,4.30
2023-03-06T03:40:53.157Z,4.45
2023-03-06T03:43:56.831Z,3.88
2023-03-06T03:47:00.508Z,5.85
2023-03-06T03:50:04.097Z,3.83
2023-03-06T03:53:07.748Z,5.70
2023-03-06T03:56:11.751Z,4.88
2023-03-06T03:59:22.253Z,3.60
2023-03-06T04:02:40.510Z,11.60
2023-03-06T04:06:01.141Z,14.43
2023-03-06T04:09:05.286Z,11.40
2023-03-06T04:12:09.305Z,8.73
2023-03-06T04:15:14.355Z,10.15
2023-03-06T04:18:18.176Z,14.20
2023-03-06T04:21:22.064Z,7.18
2023-03-06T04:24:25.382Z,4.97
2023-03-06T04:27:28.715Z,4.22
2023-03-06T04:30:32.604Z,5.28
2023-03-06T04:33:36.061Z,5.53
2023-03-06T04:36:39.385Z,6.70
2023-03-06T04:39:47.310Z,11.38
2023-03-06T04:42:50.550Z,8.38
2023-03-06T04:45:53.874Z,5.07
2023-03-06T04:48:57.164Z,9.93
2023-03-06T04:52:00.581Z,5.47
2023-03-06T04:55:09.322Z,6.82
2023-03-06T04:58:14.871Z,7.20
2023-03-06T05:01:18.171Z,9.35
2023-03-06T05:04:21.481Z,6.57
2023-03-06T05:07:24.847Z,3.67
2023-03-06T05:10:28.689Z,6.88
2023-03-06T05:13:31.980Z,6.10
2023-03-06T05:16:35.307Z,2.90
2023-03-06T05:19:38.774Z,4.53
2023-03-06T05:22:42.434Z,3.65
2023-03-06T05:25:45.815Z,4.68
2023-03-06T05:28:49.066Z,4.80
2023-03-06T05:31:52.450Z,8.20
2023-03-06T05:34:56.156Z,3.22
2023-03-06T05:37:59.412Z,11.88
2023-03-06T05:41:04.030Z,11.32
2023-03-06T05:44:07.663Z,3.33
2023-03-06T05:47:12.651Z,5.95
2023-03-06T05:53:18.996Z,6.63
2023-03-06T05:56:22.609Z,8.52
2023-03-06T05:59:30.065Z,11.77
2023-03-06T06:02:33.355Z,11.02
2023-03-06T06:05:40.750Z,7.20
2023-03-06T06:08:44.350Z,21.17
2023-03-06T06:11:47.648Z,18.70
2023-03-06T06:14:50.961Z,7.85
2023-03-06T06:17:54.125Z,4.28
2023-03-06T06:20:57.413Z,2.78
2023-03-06T06:24:00.691Z,6.05
2023-03-06T06:27:04.677Z,16.42
2023-03-06T06:30:09.548Z,7.47
2023-03-06T06:36:25.130Z,3.88
2023-03-06T06:39:29.497Z,24.73
2023-03-06T06:42:39.040Z,14.02
2023-03-06T06:45:45.019Z,7.90
2023-03-06T06:48:57.267Z,8.63
2023-03-06T06:52:00.911Z,48.60
2023-03-06T06:55:04.193Z,12.80
2023-03-06T06:58:07.502Z,5.88
2023-03-06T07:01:13.513Z,5.50
2023-03-06T07:04:17.145Z,8.57
2023-03-06T07:07:20.379Z,16.83
2023-03-06T07:10:24.113Z,5.78
2023-03-06T07:13:27.466Z,8.30
2023-03-06T07:16:30.756Z,14.40
2023-03-06T07:19:34.353Z,11.30
2023-03-06T07:22:50.381Z,9.55
2023-03-06T07:25:55.868Z,8.57
2023-03-06T07:28:59.292Z,5.63
2023-03-06T07:32:02.735Z,7.38
2023-03-06T07:35:19.805Z,7.55
2023-03-06T07:38:24.033Z,9.45
2023-03-06T07:41:27.877Z,12.77
2023-03-06T07:44:31.141Z,6.15
2023-03-06T07:47:34.341Z,18.83
2023-03-06T07:50:39.749Z,6.68
2023-03-06T07:53:43.049Z,5.30
2023-03-06T07:56:46.339Z,7.63
2023-03-06T07:59:49.537Z,5.38
2023-03-06T08:02:52.819Z,126.13
2023-03-06T08:05:56.129Z,14.23
2023-03-06T08:08:59.486Z,20.83
2023-03-06T08:12:03.164Z,12.80
2023-03-06T08:15:06.990Z,10.02
2023-03-06T08:18:10.228Z,3.60
2023-03-06T08:21:16.734Z,4.95
2023-03-06T08:24:20.164Z,6.35
2023-03-06T08:27:23.514Z,9.07
2023-03-06T08:30:26.721Z,7.95
2023-03-06T08:33:29.962Z,5.82
2023-03-06T08:36:33.822Z,5.07
2023-03-06T08:39:37.076Z,4.28
2023-03-06T08:42:40.411Z,3.42
2023-03-06T08:45:43.755Z,9.90
2023-03-06T08:48:50.597Z,1.75
2023-03-06T08:51:53.817Z,2.95
2023-03-06T08:54:58.706Z,2.95
2023-03-06T09:01:08.090Z,6.70
2023-03-06T09:04:12.592Z,6.40
2023-03-06T09:07:15.994Z,4.28
2023-03-06T09:10:21.658Z,2.47
2023-03-06T09:13:24.964Z,4.65
2023-03-06T09:16:28.449Z,7.20
2023-03-06T09:19:32.018Z,7.43
2023-03-06T09:22:35.472Z,5.90
2023-03-06T09:25:38.702Z,3.75
2023-03-06T09:28:42.511Z,2.22
2023-03-06T09:31:46.510Z,5.82
2023-03-06T09:34:50.130Z,11.13
2023-03-06T09:37:53.426Z,2.42
2023-03-06T09:41:00.869Z,14.93
2023-03-06T09:44:09.781Z,4.65
2023-03-06T09:47:34.622Z,3.30
2023-03-06T09:51:02.236Z,4.82
2023-03-06T09:54:16.023Z,9.98
2023-03-06T09:57:28.520Z,5.30
2023-03-06T10:00:57.112Z,5.60
2023-03-06T10:04:18.757Z,15.88
2023-03-06T10:07:47.433Z,14.93
2023-03-06T10:11:06.359Z,5.38
2023-03-06T10:14:28.616Z,8.18
2023-03-06T10:17:42.986Z,4.97
2023-03-06T10:21:13.416Z,13.40
2023-03-06T10:24:32.068Z,12.40
2023-03-06T10:27:57.229Z,12.02
2023-03-06T10:31:17.457Z,12.07
2023-03-06T10:34:29.517Z,25.58
2023-03-06T10:37:32.727Z,28.65
2023-03-06T10:40:51.754Z,11.63
2023-03-06T10:44:01.100Z,22.05
2023-03-06T10:47:35.592Z,8.05
2023-03-06T10:50:39.000Z,5.90
2023-03-06T10:53:51.527Z,10.55
2023-03-06T10:56:55.031Z,6.60
2023-03-06T11:00:07.610Z,8.50
2023-03-06T11:03:21.082Z,4.47
2023-03-06T11:06:36.347Z,12.15
2023-03-06T11:12:44.280Z,5.75
2023-03-06T11:16:25.769Z,4.47
2023-03-06T11:19:30.486Z,14.43
2023-03-06T11:22:34.309Z,8.48
2023-03-06T11:25:51.325Z,7.50
2023-03-06T11:29:19.575Z,8.65
2023-03-06T11:32:30.750Z,10.15
2023-03-06T11:35:44.614Z,10.25
2023-03-06T11:38:53.266Z,7.65
2023-03-06T11:42:07.470Z,10.55
2023-03-06T11:45:38.073Z,14.07
2023-03-06T11:48:53.039Z,12.15
2023-03-06T11:52:00.321Z,7.88
2023-03-06T11:55:03.892Z,14.90
2023-03-06T11:58:23.039Z,15.45
2023-03-06T12:01:42.613Z,11.68
2023-03-06T12:05:07.691Z,15.02
2023-03-06T12:08:22.941Z,13.55
2023-03-06T12:15:16.996Z,11.02
2023-03-06T12:18:44.970Z,11.35
2023-03-06T12:22:06.560Z,8.82
2023-03-06T12:25:26.380Z,11.52
2023-03-06T12:29:08.312Z,11.02
2023-03-06T12:32:35.854Z,7.38
2023-03-06T12:35:52.039Z,7.88
2023-03-06T12:39:05.459Z,9.18
2023-03-06T12:42:34.610Z,12.73
2023-03-06T12:45:39.086Z,7.70
2023-03-06T12:48:46.641Z,8.95
2023-03-06T12:51:50.036Z,10.77
2023-03-06T12:54:55.325Z,7.88
2023-03-06T12:58:37.379Z,12.90
2023-03-06T13:02:09.254Z,7.50
2023-03-06T13:05:18.332Z,13.85
2023-03-06T13:08:44.244Z,7.80
2023-03-06T13:12:18.327Z,7.82
2023-03-06T13:15:30.820Z,8.32
2023-03-06T13:18:34.175Z,7.43
2023-03-06T13:21:43.398Z,7.38
2023-03-06T13:24:46.731Z,8.35
2023-03-06T13:27:55.887Z,6.35
2023-03-06T13:30:59.328Z,7.28
2023-03-06T13:34:33.203Z,6.70
2023-03-06T13:37:39.352Z,6.25
2023-03-06T13:40:42.663Z,8.13
2023-03-06T13:43:46.881Z,6.65
2023-03-06T13:47:20.435Z,8.10
2023-03-06T13:50:34.286Z,7.57
2023-03-06T13:53:48.336Z,8.55
2023-03-06T13:57:02.563Z,7.28
2023-03-06T14:00:11.767Z,7.70
2023-03-06T14:03:48.492Z,7.28
2023-03-06T14:07:14.625Z,7.63
2023-03-06T14:10:23.184Z,9.73
2023-03-06T14:13:45.268Z,6.93
2023-03-06T14:16:51.720Z,6.55
2023-03-06T14:19:58.277Z,4.72
2023-03-06T14:23:22.624Z,5.88
2023-03-06T14:26:28.349Z,4.85
2023-03-06T14:29:34.424Z,5.55
2023-03-06T14:32:39.883Z,6.25
2023-03-06T14:35:43.274Z,19.88
2023-03-06T14:38:52.265Z,5.75
2023-03-06T14:42:17.378Z,5.13
2023-03-06T14:45:21.295Z,3.03
2023-03-06T14:48:27.762Z,4.07
2023-03-06T14:51:34.006Z,5.68
2023-03-06T14:54:40.253Z,4.88
2023-03-06T14:57:43.835Z,4.38
2023-03-06T15:00:50.781Z,5.15
2023-03-06T15:03:58.022Z,3.28
2023-03-06T15:07:01.398Z,6.18
2023-03-06T15:10:07.226Z,4.78
2023-03-06T15:13:25.760Z,5.82
2023-03-06T15:16:31.042Z,6.15
2023-03-06T15:19:41.492Z,4.75
2023-03-06T15:22:44.938Z,10.52
2023-03-06T15:26:00.850Z,9.20
2023-03-06T15:29:10.596Z,12.48
2023-03-06T15:32:36.482Z,14.98
2023-03-06T15:35:40.098Z,10.65
2023-03-06T15:38:46.237Z,8.50
2023-03-06T15:41:49.891Z,7.47
2023-03-06T15:45:04.326Z,15.10
2023-03-06T15:48:17.815Z,10.25
2023-03-06T15:51:21.964Z,31.30
2023-03-06T15:54:25.991Z,37.60
2023-03-06T15:57:30.314Z,83.33
2023-03-06T16:00:40.719Z,81.55
2023-03-06T16:03:46.207Z,72.95
2023-03-06T16:06:50.029Z,52.15
2023-03-06T16:09:54.231Z,71.13
2023-03-06T16:13:05.215Z,76.03
2023-03-06T16:16:15.829Z,25.13
2023-03-06T16:19:27.168Z,39.88
2023-03-06T16:22:32.189Z,49.95
2023-03-06T16:25:35.610Z,47.78
2023-03-06T16:28:42.235Z,34.50
2023-03-06T16:31:45.483Z,45.10
2023-03-06T16:34:49.249Z,51.45
2023-03-06T16:37:53.004Z,59.95
2023-03-06T16:40:57.153Z,59.05
2023-03-06T16:44:00.453Z,92.10
2023-03-06T16:47:04.051Z,71.57
2023-03-06T16:50:16.736Z,72.05
2023-03-06T16:53:20.186Z,64.20
2023-03-06T16:56:23.547Z,66.72
2023-03-06T16:59:26.815Z,55.70
2023-03-06T17:02:30.399Z,63.80
2023-03-06T17:05:35.006Z,61.80
2023-03-06T17:08:38.356Z,58.47
2023-03-06T17:11:44.053Z,53.20
2023-03-06T17:14:47.304Z,63.40
2023-03-06T17:17:52.348Z,54.00
2023-03-06T17:20:56.557Z,65.68
2023-03-06T17:24:02.459Z,73.47
2023-03-06T17:27:06.027Z,66.20
2023-03-06T17:30:10.892Z,70.93
2023-03-06T17:36:17.962Z,69.32
2023-03-06T17:39:21.203Z,66.80
2023-03-06T17:42:24.604Z,67.78
2023-03-06T17:45:29.792Z,70.80
2023-03-06T17:48:33.308Z,58.95
2023-03-06T17:51:36.659Z,68.13
2023-03-06T17:54:40.011Z,55.60
2023-03-06T17:57:43.220Z,56.80
2023-03-06T18:00:46.673Z,43.78
2023-03-06T18:03:51.720Z,39.80
2023-03-06T18:06:55.082Z,40.08
2023-03-06T18:09:58.481Z,37.78
2023-03-06T18:13:01.857Z,34.05
2023-03-06T18:16:06.388Z,40.03
2023-03-06T18:19:12.046Z,35.17
2023-03-06T18:22:16.083Z,25.52
2023-03-06T18:25:19.328Z,23.13
2023-03-06T18:28:22.514Z,23.42
2023-03-06T18:31:34.080Z,27.70
2023-03-06T18:34:38.137Z,27.77
2023-03-06T18:37:41.356Z,34.83
2023-03-06T18:40:44.603Z,26.50
2023-03-06T18:43:53.558Z,29.63
2023-03-06T18:46:56.918Z,33.22
2023-03-06T18:50:00.279Z,31.67
2023-03-06T18:53:03.606Z,27.58
2023-03-06T18:56:07.911Z,38.83
2023-03-06T18:59:16.420Z,39.92
2023-03-06T19:02:21.955Z,31.15
2023-03-06T19:05:25.204Z,35.58
2023-03-06T19:08:28.474Z,29.45
2023-03-06T19:11:32.920Z,31.30
2023-03-06T19:14:37.064Z,29.90
2023-03-06T19:17:40.386Z,36.42
2023-03-06T19:20:44.856Z,28.70
2023-03-06T19:23:48.620Z,30.10
2023-03-06T19:26:52.028Z,21.07
2023-03-06T19:29:55.195Z,21.08
2023-03-06T19:32:58.724Z,21.40
2023-03-06T19:36:03.441Z,25.25
2023-03-06T19:39:08.117Z,22.13
2023-03-06T19:42:13.675Z,23.63
2023-03-06T19:45:17.251Z,21.17
2023-03-06T19:48:22.698Z,22.48
2023-03-06T19:51:27.083Z,18.02
2023-03-06T19:54:32.413Z,20.30
2023-03-06T19:57:35.912Z,19.00
2023-03-06T20:00:39.471Z,22.75
2023-03-06T20:03:43.560Z,18.65
2023-03-06T20:06:47.464Z,20.92
2023-03-06T20:09:50.858Z,18.67
2023-03-06T20:12:54.300Z,25.90
2023-03-06T20:15:58.584Z,16.20
2023-03-06T20:19:02.462Z,16.65
2023-03-06T20:22:05.803Z,20.00
2023-03-06T20:25:09.731Z,20.17
2023-03-06T20:28:12.921Z,16.63
2023-03-06T20:31:21.398Z,16.08
2023-03-06T20:34:26.471Z,15.98
2023-03-06T20:37:30.222Z,17.45
2023-03-06T20:40:33.473Z,14.68
2023-03-06T20:43:36.752Z,20.63
2023-03-06T20:46:40.143Z,21.30
2023-03-06T20:49:43.575Z,14.13
2023-03-06T20:52:46.781Z,15.18
2023-03-06T20:55:50.812Z,16.98
2023-03-06T20:58:54.732Z,24.45
2023-03-06T21:01:58.032Z,15.77
2023-03-06T21:05:01.607Z,21.85
2023-03-06T21:08:05.317Z,37.15
2023-03-06T21:11:08.840Z,31.83
2023-03-06T21:14:13.964Z,46.92
2023-03-06T21:17:17.382Z,28.90
2023-03-06T21:20:20.702Z,23.17
2023-03-06T21:23:23.971Z,23.05
2023-03-06T21:26:30.756Z,17.65
2023-03-06T21:29:34.094Z,21.77
2023-03-06T21:32:37.370Z,25.13
2023-03-06T21:35:45.098Z,21.65
2023-03-06T21:38:49.757Z,55.50
2023-03-06T21:41:53.058Z,8.85
2023-03-06T21:44:56.284Z,10.25
2023-03-06T21:48:00.839Z,19.50
2023-03-06T21:51:24.827Z,11.55
2023-03-06T21:54:29.930Z,10.68
2023-03-06T21:57:33.247Z,7.90
2023-03-06T22:00:36.901Z,18.65
2023-03-06T22:03:40.426Z,19.10
2023-03-06T22:06:43.719Z,12.75
2023-03-06T22:09:47.101Z,9.82
2023-03-06T22:12:50.458Z,153.95
2023-03-06T22:15:54.337Z,11.43
2023-03-06T22:18:57.894Z,8.17
2023-03-06T22:22:01.181Z,14.02
2023-03-06T22:25:05.704Z,9.38
2023-03-06T22:28:09.113Z,12.15
2023-03-06T22:31:16.033Z,15.48
2023-03-06T22:34:19.580Z,10.65
2023-03-06T22:37:22.943Z,11.02
2023-03-06T22:40:26.774Z,19.25
2023-03-06T22:43:30.741Z,19.93
2023-03-06T22:46:34.065Z,18.07
2023-03-06T22:49:38.827Z,22.67
2023-03-06T22:55:45.199Z,16.33
2023-03-06T22:58:48.954Z,16.67
2023-03-06T23:01:52.238Z,21.30
2023-03-06T23:04:55.514Z,19.40
2023-03-06T23:07:58.718Z,24.48
2023-03-06T23:11:02.040Z,24.95
2023-03-06T23:14:23.504Z,26.67
2023-03-06T23:17:45.073Z,24.42
2023-03-06T23:21:11.921Z,33.85
2023-03-06T23:24:37.411Z,35.08
2023-03-06T23:27:40.734Z,26.65
2023-03-06T23:30:44.199Z,30.08
2023-03-06T23:33:48.723Z,30.13
2023-03-06T23:36:51.977Z,25.38
2023-03-06T23:42:59.744Z,21.65
2023-03-06T23:46:03.818Z,19.08
2023-03-06T23:49:08.129Z,20.23
2023-03-06T23:52:11.554Z,30.27
2023-03-06T23:55:14.922Z,34.42
2023-03-06T23:58:19.794Z,28.27
